Time;durP1;ratioP1;P1;durP2;ratioP2;P2;SDS_P1;SDS_P2;PMS_P1;PMS_P2;Temp;Humidity;BMP_temperature;BMP_pressure;BME280_temperature;BME280_humidity;BME280_pressure;Samples;Min_cycle;Max_cycle;Signal;HPM_P1;HPM_P2
2022/02/11 00:07:11;;;;;;;45.42;30.33;;;;;;;;;;4956681;28;20066;-68
2022/02/11 00:09:38;;;;;;;43.63;28.43;;;;;;;;;;4956773;28;20488;-68
2022/02/11 00:12:04;;;;;;;52.77;29.47;;;;;;;;;;4956512;28;20066;-68
2022/02/11 00:14:35;;;;;;;49.93;28.60;;;;;;;;;;4956178;28;20411;-67
2022/02/11 00:17:01;;;;;;;44.27;29.03;;;;;;;;;;4956384;28;20031;-68
2022/02/11 00:19:27;;;;;;;57.30;29.17;;;;;;;;;;4956622;28;20031;-68
2022/02/11 00:21:53;;;;;;;49.50;25.60;;;;;;;;;;4956442;28;20035;-68
2022/02/11 00:24:19;;;;;;;54.33;26.93;;;;;;;;;;4956126;28;20048;-68
2022/02/11 00:26:57;;;;;;;56.73;30.27;;;;;;;;;;4956544;28;20165;-68
2022/02/11 00:30:12;;;;;;;55.77;31.57;;;;;;;;;;4956106;28;20024;-68
2022/02/11 00:32:31;;;;;;;54.13;32.73;;;;;;;;;;4956206;28;20380;-68
2022/02/11 00:35:07;;;;;;;58.13;34.93;;;;;;;;;;4956138;28;20027;-68
2022/02/11 00:37:37;;;;;;;66.37;37.57;;;;;;;;;;4955255;28;20039;-68
2022/02/11 01:02:11;;;;;;;69.70;43.90;;;;;;;;;;4955204;29;20034;-68
2022/02/11 01:04:14;;;;;;;70.40;42.23;;;;;;;;;;4954848;28;20058;-69
2022/02/11 01:06:41;;;;;;;73.10;41.23;;;;;;;;;;4954779;28;20031;-69
2022/02/11 01:09:11;;;;;;;71.23;42.60;;;;;;;;;;4954904;28;20031;-68
2022/02/11 01:14:09;;;;;;;70.03;43.20;;;;;;;;;;4954852;28;20035;-68
2022/02/11 01:16:50;;;;;;;69.93;44.53;;;;;;;;;;4955344;28;20369;-68
2022/02/11 01:19:34;;;;;;;75.90;43.10;;;;;;;;;;4954270;28;20143;-68
2022/02/11 01:24:47;;;;;;;67.00;41.27;;;;;;;;;;4954621;28;20464;-68
2022/02/11 01:37:47;;;;;;;73.93;44.70;;;;;;;;;;4955570;28;20749;-68
2022/02/11 01:53:34;;;;;;;72.73;45.20;;;;;;;;;;4954977;28;20042;-68
2022/02/11 01:56:16;;;;;;;69.80;43.87;;;;;;;;;;4954035;28;20035;-68
2022/02/11 02:26:18;;;;;;;63.73;42.20;;;;;;;;;;4954530;28;20127;-67
2022/02/11 02:37:21;;;;;;;59.57;37.70;;;;;;;;;;4954274;28;20156;-70
2022/02/11 02:59:51;;;;;;;51.43;30.67;;;;;;;;;;4953095;28;20139;-67
2022/02/11 03:14:26;;;;;;;50.93;30.63;;;;;;;;;;4959351;28;20035;-68
2022/02/11 04:55:26;;;;;;;38.00;20.17;;;;;;;;;;4955850;28;20058;-69
2022/02/11 05:00:39;;;;;;;33.37;19.97;;;;;;;;;;4956052;28;20062;-67
2022/02/11 05:03:06;;;;;;;29.77;19.10;;;;;;;;;;4955976;28;20097;-69
2022/02/11 05:05:50;;;;;;;38.03;20.57;;;;;;;;;;4955498;28;20381;-68
2022/02/11 05:08:20;;;;;;;32.30;19.87;;;;;;;;;;4955809;28;20035;-68
2022/02/11 05:10:47;;;;;;;36.33;19.87;;;;;;;;;;4955656;28;20031;-68
2022/02/11 05:13:13;;;;;;;34.40;20.60;;;;;;;;;;4955738;28;20024;-68
2022/02/11 05:15:39;;;;;;;31.23;19.23;;;;;;;;;;4955453;28;20554;-68
2022/02/11 05:18:07;;;;;;;36.13;18.90;;;;;;;;;;4955117;28;20051;-68
2022/02/11 05:20:33;;;;;;;37.83;19.50;;;;;;;;;;4955717;28;20063;-68
2022/02/11 05:22:59;;;;;;;37.13;19.73;;;;;;;;;;4954615;28;20029;-68
2022/02/11 05:25:25;;;;;;;36.37;19.23;;;;;;;;;;4955322;28;20027;-70
2022/02/11 05:27:51;;;;;;;35.37;19.37;;;;;;;;;;4955280;28;20031;-68
2022/02/11 05:30:17;;;;;;;41.03;20.03;;;;;;;;;;4955291;28;20038;-67
2022/02/11 05:32:43;;;;;;;34.63;20.73;;;;;;;;;;4954839;28;20479;-68
2022/02/11 05:35:09;;;;;;;33.30;19.37;;;;;;;;;;4955048;28;20023;-68
2022/02/11 05:37:35;;;;;;;34.00;20.10;;;;;;;;;;4955426;28;20059;-69
2022/02/11 05:40:01;;;;;;;40.33;20.47;;;;;;;;;;4955246;28;20512;-68
2022/02/11 05:42:30;;;;;;;37.90;21.93;;;;;;;;;;4955266;28;20067;-69
2022/02/11 05:44:56;;;;;;;35.43;19.83;;;;;;;;;;4955093;28;20035;-68
2022/02/11 05:47:22;;;;;;;39.33;21.20;;;;;;;;;;4954903;28;20028;-68
2022/02/11 05:49:48;;;;;;;38.03;20.57;;;;;;;;;;4954614;28;20050;-68
2022/02/11 05:52:15;;;;;;;35.83;20.83;;;;;;;;;;4955284;28;20019;-68
2022/02/11 05:54:41;;;;;;;35.73;21.10;;;;;;;;;;4954988;28;20023;-69
2022/02/11 05:57:07;;;;;;;45.83;21.47;;;;;;;;;;4955119;28;20036;-68
2022/02/11 05:59:33;;;;;;;40.47;20.53;;;;;;;;;;4955427;28;20162;-69
2022/02/11 06:01:59;;;;;;;36.83;21.27;;;;;;;;;;4954721;28;20032;-67
2022/02/11 06:04:25;;;;;;;41.20;22.10;;;;;;;;;;4954440;28;20023;-67
2022/02/11 06:06:52;;;;;;;32.97;19.90;;;;;;;;;;4954775;28;20034;-67
2022/02/11 06:09:18;;;;;;;37.77;21.53;;;;;;;;;;4954966;28;20388;-67
2022/02/11 06:11:45;;;;;;;38.90;22.50;;;;;;;;;;4954520;28;20031;-67
2022/02/11 06:14:11;;;;;;;44.60;21.13;;;;;;;;;;4954825;28;20121;-67
2022/02/11 06:16:37;;;;;;;42.90;22.87;;;;;;;;;;4954889;28;20384;-66
2022/02/11 06:19:03;;;;;;;42.47;22.23;;;;;;;;;;4954469;28;20032;-67
2022/02/11 06:21:29;;;;;;;47.60;21.60;;;;;;;;;;4954640;28;20424;-67
2022/02/11 06:23:55;;;;;;;42.70;21.50;;;;;;;;;;4953901;28;20051;-68
2022/02/11 06:26:25;;;;;;;43.30;21.97;;;;;;;;;;4955232;28;20404;-68
2022/02/11 06:28:51;;;;;;;46.23;20.70;;;;;;;;;;4955209;28;20027;-68
2022/02/11 06:31:18;;;;;;;30.97;20.23;;;;;;;;;;4956054;28;20027;-70
2022/02/11 06:33:44;;;;;;;36.43;21.50;;;;;;;;;;4955485;28;20027;-67
2022/02/11 06:36:10;;;;;;;35.57;20.07;;;;;;;;;;4958675;28;20484;-67
2022/02/11 06:38:36;;;;;;;38.87;21.20;;;;;;;;;;4959058;28;20535;-67
2022/02/11 06:41:03;;;;;;;32.17;19.57;;;;;;;;;;4958933;28;20054;-67
2022/02/11 06:43:29;;;;;;;39.53;22.53;;;;;;;;;;4958761;28;20063;-67
2022/02/11 06:45:55;;;;;;;43.23;22.17;;;;;;;;;;4957538;28;20038;-69
2022/02/11 06:48:24;;;;;;;32.73;20.43;;;;;;;;;;4951308;28;20027;-66
2022/02/11 06:50:51;;;;;;;37.23;20.90;;;;;;;;;;4957831;28;20031;-67
2022/02/11 06:53:17;;;;;;;39.83;21.57;;;;;;;;;;4957961;28;20361;-66
2022/02/11 06:55:44;;;;;;;39.67;20.93;;;;;;;;;;4957757;28;20054;-67
2022/02/11 06:58:10;;;;;;;40.97;22.23;;;;;;;;;;4958125;28;20039;-66
2022/02/11 07:00:38;;;;;;;36.23;21.07;;;;;;;;;;4958408;28;20134;-67
2022/02/11 07:03:05;;;;;;;34.20;21.83;;;;;;;;;;4958440;28;20027;-66
2022/02/11 07:05:31;;;;;;;40.80;20.80;;;;;;;;;;4958168;28;20535;-67
2022/02/11 07:07:57;;;;;;;34.97;22.63;;;;;;;;;;4958420;28;20114;-67
2022/02/11 07:10:23;;;;;;;38.37;22.30;;;;;;;;;;4957571;28;20094;-68
2022/02/11 07:12:49;;;;;;;32.63;22.97;;;;;;;;;;4957180;28;20031;-67
2022/02/11 07:15:15;;;;;;;42.93;22.23;;;;;;;;;;4957394;28;20110;-66
2022/02/11 07:17:41;;;;;;;40.67;22.40;;;;;;;;;;4957820;28;20042;-68
2022/02/11 07:20:08;;;;;;;38.90;22.63;;;;;;;;;;4955850;28;20035;-66
2022/02/11 07:22:37;;;;;;;48.73;21.70;;;;;;;;;;4973627;28;20034;-67
2022/02/11 07:25:07;;;;;;;40.60;22.20;;;;;;;;;;4974442;28;20034;-67
2022/02/11 07:27:34;;;;;;;39.40;22.47;;;;;;;;;;4975375;28;20034;-67
2022/02/11 07:30:00;;;;;;;39.63;22.33;;;;;;;;;;4977051;28;20027;-70
2022/02/11 07:32:26;;;;;;;40.50;22.87;;;;;;;;;;4976531;28;20031;-70
2022/02/11 07:34:53;;;;;;;41.33;23.37;;;;;;;;;;4976709;28;20479;-70
2022/02/11 07:37:19;;;;;;;40.57;23.60;;;;;;;;;;4977128;28;20042;-68
2022/02/11 07:39:45;;;;;;;39.17;23.80;;;;;;;;;;4976813;28;20407;-67
2022/02/11 07:42:12;;;;;;;42.20;22.53;;;;;;;;;;4976583;28;20034;-67
2022/02/11 07:44:38;;;;;;;47.80;23.53;;;;;;;;;;4976835;28;20027;-66
2022/02/11 07:47:04;;;;;;;37.17;22.40;;;;;;;;;;4974801;28;20480;-66
2022/02/11 07:49:30;;;;;;;40.07;22.30;;;;;;;;;;4974083;28;20085;-66
2022/02/11 07:51:56;;;;;;;37.83;21.67;;;;;;;;;;4975279;28;20407;-70
2022/02/11 07:54:22;;;;;;;40.57;23.80;;;;;;;;;;4976613;28;20081;-67
2022/02/11 07:56:48;;;;;;;36.93;22.70;;;;;;;;;;4976582;28;20039;-66
2022/02/11 07:59:14;;;;;;;43.70;22.83;;;;;;;;;;4976382;28;20034;-67
2022/02/11 08:01:40;;;;;;;40.20;22.13;;;;;;;;;;4976221;28;20027;-67
2022/02/11 08:04:08;;;;;;;44.17;23.27;;;;;;;;;;4976536;28;20034;-66
2022/02/11 08:06:34;;;;;;;39.83;22.33;;;;;;;;;;4974781;28;20050;-65
2022/02/11 08:09:00;;;;;;;36.73;21.13;;;;;;;;;;4973270;28;20468;-66
2022/02/11 08:11:26;;;;;;;37.97;21.93;;;;;;;;;;4973557;28;20121;-66
2022/02/11 08:13:52;;;;;;;39.40;23.23;;;;;;;;;;4975537;28;20204;-66
2022/02/11 08:16:18;;;;;;;41.63;23.70;;;;;;;;;;4976019;28;20113;-68
2022/02/11 08:18:44;;;;;;;38.50;22.33;;;;;;;;;;4972112;28;20502;-66
2022/02/11 08:21:10;;;;;;;34.27;21.23;;;;;;;;;;4975887;28;20070;-65
2022/02/11 08:23:36;;;;;;;51.13;24.37;;;;;;;;;;4975997;28;20088;-67
2022/02/11 08:26:02;;;;;;;40.03;22.30;;;;;;;;;;4977356;28;20472;-68
2022/02/11 08:28:31;;;;;;;33.67;21.53;;;;;;;;;;4980051;28;20034;-67
2022/02/11 08:30:57;;;;;;;38.03;21.60;;;;;;;;;;4978600;28;20019;-67
2022/02/11 08:33:23;;;;;;;47.17;22.83;;;;;;;;;;4977981;28;20066;-66
2022/02/11 08:35:53;;;;;;;41.97;26.17;;;;;;;;;;4978410;28;20038;-67
2022/02/11 08:38:19;;;;;;;50.47;32.27;;;;;;;;;;4978776;28;20038;-66
2022/02/11 08:40:46;;;;;;;54.13;31.03;;;;;;;;;;4978275;28;20061;-66
2022/02/11 08:43:12;;;;;;;52.17;30.90;;;;;;;;;;4977581;28;20471;-68
2022/02/11 08:45:40;;;;;;;57.37;32.77;;;;;;;;;;4977561;28;20031;-67
2022/02/11 08:48:07;;;;;;;46.03;32.77;;;;;;;;;;4975593;28;20050;-67
2022/02/11 08:50:33;;;;;;;59.13;35.70;;;;;;;;;;4975218;28;20030;-67
2022/02/11 08:52:59;;;;;;;56.73;34.10;;;;;;;;;;4975750;28;20203;-66
2022/02/11 08:55:25;;;;;;;52.50;33.23;;;;;;;;;;4975193;28;20191;-65
2022/02/11 08:57:53;;;;;;;56.13;32.40;;;;;;;;;;4975314;28;20101;-67
2022/02/11 09:00:20;;;;;;;53.27;32.77;;;;;;;;;;4975534;28;20027;-68
2022/02/11 09:02:46;;;;;;;63.57;32.93;;;;;;;;;;4975316;28;20372;-66
2022/02/11 09:05:12;;;;;;;63.07;37.87;;;;;;;;;;4975012;28;20018;-67
2022/02/11 09:07:38;;;;;;;64.03;36.77;;;;;;;;;;4975349;28;20031;-68
2022/02/11 09:10:07;;;;;;;57.63;35.30;;;;;;;;;;4974892;28;20027;-66
2022/02/11 09:12:33;;;;;;;58.60;35.17;;;;;;;;;;4974982;28;20038;-68
2022/02/11 09:14:59;;;;;;;51.73;33.50;;;;;;;;;;4974916;28;20030;-71
2022/02/11 09:17:26;;;;;;;51.70;35.67;;;;;;;;;;4974686;28;20419;-71
2022/02/11 09:19:52;;;;;;;51.67;31.97;;;;;;;;;;4967816;28;20495;-67
2022/02/11 09:22:19;;;;;;;49.27;29.00;;;;;;;;;;4955934;28;20027;-67
2022/02/11 09:24:45;;;;;;;45.33;25.13;;;;;;;;;;4955885;28;20049;-67
2022/02/11 09:27:11;;;;;;;44.37;24.30;;;;;;;;;;4970420;28;20037;-68
2022/02/11 09:29:37;;;;;;;45.67;23.77;;;;;;;;;;4955959;28;20440;-67
2022/02/11 09:32:04;;;;;;;37.30;23.13;;;;;;;;;;4955636;28;20027;-67
2022/02/11 09:34:32;;;;;;;50.83;24.47;;;;;;;;;;4955584;28;20031;-66
2022/02/11 09:36:58;;;;;;;44.53;22.93;;;;;;;;;;4954892;28;20043;-68
2022/02/11 09:39:24;;;;;;;37.97;23.13;;;;;;;;;;4954593;28;20027;-66
2022/02/11 09:41:52;;;;;;;46.07;23.20;;;;;;;;;;4955349;28;20476;-67
2022/02/11 09:44:22;;;;;;;37.30;21.53;;;;;;;;;;4970389;28;20066;-67
2022/02/11 09:46:48;;;;;;;39.40;24.17;;;;;;;;;;4954923;28;20097;-68
2022/02/11 09:49:14;;;;;;;44.60;23.03;;;;;;;;;;4954577;28;20026;-71
2022/02/11 09:51:42;;;;;;;40.70;22.10;;;;;;;;;;4941367;28;20405;-71
2022/02/11 09:54:08;;;;;;;35.27;21.47;;;;;;;;;;4934085;29;20055;-70
2022/02/11 09:56:34;;;;;;;45.20;22.33;;;;;;;;;;4933268;29;20032;-67
2022/02/11 09:59:01;;;;;;;40.37;22.53;;;;;;;;;;4934454;29;20023;-69
2022/02/11 10:01:27;;;;;;;38.03;21.50;;;;;;;;;;4934357;29;20031;-67
2022/02/11 10:04:12;;;;;;;42.07;22.17;;;;;;;;;;4934381;29;20027;-66
2022/02/11 10:06:39;;;;;;;36.93;20.60;;;;;;;;;;4933170;29;20032;-65
2022/02/11 10:09:05;;;;;;;40.63;21.20;;;;;;;;;;4933506;29;20511;-66
2022/02/11 10:11:32;;;;;;;42.43;21.87;;;;;;;;;;4933974;29;20388;-65
2022/02/11 10:14:16;;;;;;;45.27;23.13;;;;;;;;;;4934027;29;20103;-67
2022/02/11 10:16:51;;;;;;;44.07;23.07;;;;;;;;;;4934482;29;20512;-71
2022/02/11 10:19:35;;;;;;;39.60;23.60;;;;;;;;;;4933363;29;20031;-67
2022/02/11 10:22:34;;;;;;;41.77;23.83;;;;;;;;;;4933945;29;20385;-66
2022/02/11 10:25:00;;;;;;;44.57;24.30;;;;;;;;;;4921502;29;20126;-72
2022/02/11 10:27:28;;;;;;;44.90;23.27;;;;;;;;;;4933920;29;20027;-66
2022/02/11 10:29:56;;;;;;;41.90;23.97;;;;;;;;;;4934116;29;20020;-70
2022/02/11 10:32:40;;;;;;;45.57;22.07;;;;;;;;;;4934501;29;20105;-66
2022/02/11 10:35:07;;;;;;;45.73;23.07;;;;;;;;;;4933793;29;20015;-67
2022/02/11 10:37:33;;;;;;;39.13;22.73;;;;;;;;;;4934153;29;20082;-66
2022/02/11 10:40:00;;;;;;;41.63;22.77;;;;;;;;;;4934331;29;20071;-66
2022/02/11 10:42:43;;;;;;;40.13;22.67;;;;;;;;;;4934124;29;20047;-66
2022/02/11 10:45:26;;;;;;;45.73;22.53;;;;;;;;;;4931633;29;20024;-68
2022/02/11 10:48:11;;;;;;;39.35;21.42;;;;;;;;;;4931887;29;20063;-70
2022/02/11 10:50:37;;;;;;;39.60;21.17;;;;;;;;;;4932134;29;20758;-65
2022/02/11 10:53:03;;;;;;;38.47;21.43;;;;;;;;;;4933556;29;20360;-66
2022/02/11 10:55:29;;;;;;;41.30;24.07;;;;;;;;;;4933779;29;20028;-68
2022/02/11 10:57:58;;;;;;;39.47;23.40;;;;;;;;;;4934045;29;20031;-66
2022/02/11 11:00:25;;;;;;;42.83;22.87;;;;;;;;;;4933909;29;20559;-66
2022/02/11 11:02:51;;;;;;;36.27;20.40;;;;;;;;;;4946174;28;20058;-72
2022/02/11 11:05:17;;;;;;;40.13;20.50;;;;;;;;;;4933863;29;20020;-67
2022/02/11 11:07:44;;;;;;;37.70;20.77;;;;;;;;;;4933663;29;20115;-66
2022/02/11 11:10:14;;;;;;;35.80;19.27;;;;;;;;;;4931037;29;20440;-66
2022/02/11 11:12:53;;;;;;;37.60;20.13;;;;;;;;;;4933927;29;20024;-72
2022/02/11 11:15:20;;;;;;;34.43;19.07;;;;;;;;;;4932555;29;20378;-72
2022/02/11 11:17:49;;;;;;;40.07;19.07;;;;;;;;;;4933876;29;20441;-66
2022/02/11 11:20:15;;;;;;;42.83;20.47;;;;;;;;;;4933735;29;20119;-65
2022/02/11 11:22:45;;;;;;;44.10;20.43;;;;;;;;;;4937417;29;20028;-73
2022/02/11 11:25:11;;;;;;;36.00;20.87;;;;;;;;;;4934361;29;20023;-68
2022/02/11 11:27:41;;;;;;;39.97;19.40;;;;;;;;;;4937211;29;20031;-66
2022/02/11 11:30:20;;;;;;;39.27;21.03;;;;;;;;;;4937258;29;20027;-67
2022/02/11 11:33:04;;;;;;;37.30;19.10;;;;;;;;;;4937293;29;20020;-67
2022/02/11 11:35:31;;;;;;;38.57;20.77;;;;;;;;;;4926865;29;20060;-68
2022/02/11 11:38:16;;;;;;;33.17;19.03;;;;;;;;;;4927461;29;20032;-66
2022/02/11 11:41:01;;;;;;;36.90;19.10;;;;;;;;;;4935632;29;20068;-69
2022/02/11 11:43:34;;;;;;;32.53;17.80;;;;;;;;;;4936474;29;20560;-67
2022/02/11 11:46:22;;;;;;;30.30;16.95;;;;;;;;;;4936532;29;20094;-77
2022/02/11 11:49:00;;;;;;;34.07;16.73;;;;;;;;;;4935554;29;20421;-67
2022/02/11 11:51:28;;;;;;;33.57;17.80;;;;;;;;;;4934535;29;20119;-67
2022/02/11 11:54:13;;;;;;;37.17;18.33;;;;;;;;;;4935881;29;20047;-67
2022/02/11 11:56:41;;;;;;;33.97;18.27;;;;;;;;;;4936430;29;20039;-68
2022/02/11 11:59:17;;;;;;;39.03;19.90;;;;;;;;;;4934389;29;20555;-67
2022/02/11 12:02:02;;;;;;;34.63;17.93;;;;;;;;;;4934815;29;20036;-69
2022/02/11 12:04:31;;;;;;;33.60;17.60;;;;;;;;;;4935782;29;20027;-67
2022/02/11 12:07:00;;;;;;;35.50;17.13;;;;;;;;;;4937920;29;20071;-66
2022/02/11 12:09:26;;;;;;;42.10;17.87;;;;;;;;;;4937920;29;20064;-68
2022/02/11 12:11:53;;;;;;;32.07;17.23;;;;;;;;;;4937666;29;20030;-67
2022/02/11 12:14:19;;;;;;;34.00;17.07;;;;;;;;;;4937491;29;20019;-67
2022/02/11 12:16:46;;;;;;;35.57;18.07;;;;;;;;;;4937977;29;20031;-66
2022/02/11 12:19:12;;;;;;;40.10;18.10;;;;;;;;;;4937954;29;20152;-66
2022/02/11 12:21:38;;;;;;;28.87;17.03;;;;;;;;;;4937622;29;20028;-67
2022/02/11 12:29:34;;;;;;;33.57;19.33;;;;;;;;;;4936111;29;20050;-68
2022/02/11 12:32:04;;;;;;;34.20;18.60;;;;;;;;;;4936716;29;20043;-72
2022/02/11 12:34:30;;;;;;;36.73;19.60;;;;;;;;;;4937156;29;20027;-70
2022/02/11 12:37:09;;;;;;;34.63;18.97;;;;;;;;;;4937221;29;20040;-66
2022/02/11 12:39:35;;;;;;;35.00;19.23;;;;;;;;;;4937026;29;20079;-71
2022/02/11 12:42:01;;;;;;;32.33;20.67;;;;;;;;;;4937461;29;20040;-67
2022/02/11 12:44:31;;;;;;;44.00;22.67;;;;;;;;;;4937233;29;20051;-66
2022/02/11 12:46:59;;;;;;;41.17;22.53;;;;;;;;;;4936595;29;20412;-67
2022/02/11 12:49:26;;;;;;;47.97;23.50;;;;;;;;;;4936851;29;20428;-68
2022/02/11 12:51:53;;;;;;;38.53;23.50;;;;;;;;;;4936740;29;20047;-68
2022/02/11 12:54:19;;;;;;;45.07;23.33;;;;;;;;;;4936678;29;20118;-67
2022/02/11 12:56:46;;;;;;;53.73;26.03;;;;;;;;;;4936515;29;20078;-69
2022/02/11 12:59:12;;;;;;;47.50;25.67;;;;;;;;;;4936387;29;20031;-67
2022/02/11 13:01:39;;;;;;;45.43;26.57;;;;;;;;;;4936355;29;20032;-68
2022/02/11 13:04:05;;;;;;;43.87;26.00;;;;;;;;;;4936742;29;20028;-71
2022/02/11 13:06:35;;;;;;;45.80;27.30;;;;;;;;;;4936391;29;20024;-71
2022/02/11 13:09:05;;;;;;;52.50;27.40;;;;;;;;;;4936318;29;20420;-66
2022/02/11 13:11:31;;;;;;;43.03;26.67;;;;;;;;;;4935836;29;20090;-66
2022/02/11 13:14:01;;;;;;;48.77;26.93;;;;;;;;;;4935795;29;20032;-72
2022/02/11 13:16:28;;;;;;;41.60;25.50;;;;;;;;;;4935690;29;20043;-71
2022/02/11 13:18:55;;;;;;;49.67;25.67;;;;;;;;;;4935463;29;20361;-66
2022/02/11 13:21:21;;;;;;;43.37;23.47;;;;;;;;;;4928109;29;20527;-66
2022/02/11 13:23:52;;;;;;;41.70;23.97;;;;;;;;;;4936135;29;20111;-66
2022/02/11 13:26:22;;;;;;;40.60;24.40;;;;;;;;;;4931000;29;20062;-69
2022/02/11 13:28:50;;;;;;;48.73;26.77;;;;;;;;;;4933831;29;20028;-68
2022/02/11 13:31:18;;;;;;;47.80;26.40;;;;;;;;;;4936438;29;20036;-66
2022/02/11 13:33:45;;;;;;;44.40;24.03;;;;;;;;;;4927919;29;20170;-67
2022/02/11 13:36:12;;;;;;;39.70;24.40;;;;;;;;;;4924244;29;20040;-67
2022/02/11 13:38:47;;;;;;;44.67;25.37;;;;;;;;;;4922770;29;20031;-70
2022/02/11 13:41:15;;;;;;;47.73;28.63;;;;;;;;;;4932203;29;20048;-66
2022/02/11 13:43:48;;;;;;;62.73;32.23;;;;;;;;;;4934082;29;20046;-68
2022/02/11 13:46:31;;;;;;;57.67;32.87;;;;;;;;;;4932531;29;20428;-66
2022/02/11 13:48:57;;;;;;;;;;;;;;;;;;4936679;29;20055;-66
2022/02/11 13:51:24;;;;;;;54.63;31.07;;;;;;;;;;4936130;29;19973;-66
2022/02/11 13:53:54;;;;;;;54.37;30.63;;;;;;;;;;4936186;29;20031;-66
2022/02/11 13:56:22;;;;;;;50.17;32.33;;;;;;;;;;4936104;29;20074;-66
2022/02/11 13:59:01;;;;;;;53.87;30.93;;;;;;;;;;4936304;29;20028;-66
2022/02/11 14:01:28;;;;;;;48.20;29.10;;;;;;;;;;4936609;29;20032;-73
2022/02/11 14:04:01;;;;;;;54.00;31.43;;;;;;;;;;4935783;29;20409;-70
2022/02/11 14:06:28;;;;;;;53.03;30.17;;;;;;;;;;4935868;29;20429;-66
2022/02/11 14:08:55;;;;;;;57.10;30.67;;;;;;;;;;4936202;29;20032;-69
2022/02/11 14:11:21;;;;;;;51.23;28.83;;;;;;;;;;4935966;29;20115;-66
2022/02/11 14:13:48;;;;;;;52.30;30.40;;;;;;;;;;4935751;29;20109;-66
2022/02/11 14:16:14;;;;;;;42.77;29.03;;;;;;;;;;4938329;29;20039;-68
2022/02/11 14:18:44;;;;;;;50.20;31.63;;;;;;;;;;4940714;29;20480;-66
2022/02/11 14:21:14;;;;;;;56.63;32.70;;;;;;;;;;4942961;29;20028;-68
2022/02/11 14:23:40;;;;;;;59.10;33.77;;;;;;;;;;4939695;29;20670;-66
2022/02/11 14:26:06;;;;;;;55.40;35.90;;;;;;;;;;4943095;29;20032;-71
2022/02/11 14:28:34;;;;;;;60.57;33.07;;;;;;;;;;4942965;29;20031;-66
2022/02/11 14:31:00;;;;;;;51.10;32.33;;;;;;;;;;4942964;29;20028;-67
2022/02/11 14:33:27;;;;;;;53.77;33.30;;;;;;;;;;4941173;29;20028;-68
2022/02/11 14:35:53;;;;;;;49.27;32.47;;;;;;;;;;4935891;29;20032;-67
2022/02/11 14:38:19;;;;;;;57.10;34.27;;;;;;;;;;4935904;29;20028;-66
2022/02/11 14:43:29;;;;;;;55.70;32.57;;;;;;;;;;4934571;29;20039;-67
2022/02/11 14:45:55;;;;;;;56.73;33.00;;;;;;;;;;4934811;29;20384;-70
2022/02/11 14:48:22;;;;;;;52.70;32.93;;;;;;;;;;4935069;29;20028;-66
2022/02/11 14:50:48;;;;;;;53.40;29.70;;;;;;;;;;4935335;29;20042;-67
2022/02/11 14:53:14;;;;;;;46.73;28.93;;;;;;;;;;4935420;29;20398;-67
2022/02/11 14:55:40;;;;;;;45.67;27.23;;;;;;;;;;4937574;29;20063;-71
2022/02/11 14:58:06;;;;;;;49.73;29.30;;;;;;;;;;4939113;29;20095;-67
2022/02/11 15:00:32;;;;;;;46.00;26.17;;;;;;;;;;4938977;29;20086;-66
2022/02/11 15:02:58;;;;;;;47.17;26.07;;;;;;;;;;4938954;29;20508;-67
2022/02/11 15:05:24;;;;;;;51.13;27.90;;;;;;;;;;4939143;29;20024;-69
2022/02/11 15:07:50;;;;;;;44.43;28.10;;;;;;;;;;4939082;29;20424;-67
2022/02/11 15:10:17;;;;;;;50.27;27.87;;;;;;;;;;4938809;29;20548;-72
2022/02/11 15:12:43;;;;;;;44.90;29.93;;;;;;;;;;4939143;29;20035;-69
2022/02/11 15:15:10;;;;;;;49.33;29.63;;;;;;;;;;4939005;29;20051;-67
2022/02/11 15:17:36;;;;;;;43.37;27.73;;;;;;;;;;4939073;29;20040;-67
2022/02/11 15:20:02;;;;;;;44.13;26.43;;;;;;;;;;4938938;29;20034;-69
2022/02/11 15:22:28;;;;;;;42.23;27.27;;;;;;;;;;4938906;29;20039;-67
2022/02/11 15:24:57;;;;;;;42.07;26.07;;;;;;;;;;4938409;29;20027;-66
2022/02/11 15:27:23;;;;;;;44.07;25.00;;;;;;;;;;4938827;29;20034;-69
2022/02/11 15:29:49;;;;;;;41.63;24.97;;;;;;;;;;4938882;29;20159;-74
2022/02/11 15:32:16;;;;;;;43.57;24.73;;;;;;;;;;4938844;29;20040;-75
2022/02/11 15:34:44;;;;;;;45.40;28.03;;;;;;;;;;4938496;29;20499;-70
2022/02/11 15:37:10;;;;;;;54.60;33.10;;;;;;;;;;4938545;29;20039;-69
2022/02/11 15:39:37;;;;;;;53.37;30.23;;;;;;;;;;4938439;29;20044;-77
2022/02/11 15:42:03;;;;;;;65.87;31.33;;;;;;;;;;4938744;29;20039;-71
2022/02/11 15:44:29;;;;;;;96.90;36.07;;;;;;;;;;4938394;29;20056;-68
2022/02/11 15:46:55;;;;;;;63.23;32.40;;;;;;;;;;4938135;29;20038;-70
2022/02/11 15:49:22;;;;;;;68.07;32.30;;;;;;;;;;4938230;29;20028;-71
2022/02/11 15:51:48;;;;;;;57.97;32.17;;;;;;;;;;4938339;29;20032;-71
2022/02/11 15:54:14;;;;;;;53.70;32.60;;;;;;;;;;4938081;29;20032;-70
2022/02/11 15:56:40;;;;;;;52.10;30.57;;;;;;;;;;4938140;29;20091;-71
2022/02/11 15:59:06;;;;;;;46.73;29.33;;;;;;;;;;4938155;29;20035;-73
2022/02/11 16:01:32;;;;;;;53.67;29.83;;;;;;;;;;4937793;29;20040;-68
2022/02/11 16:04:01;;;;;;;54.50;30.23;;;;;;;;;;4937972;29;20055;-66
2022/02/11 16:06:27;;;;;;;53.27;29.63;;;;;;;;;;4936996;29;20027;-68
2022/02/11 16:08:54;;;;;;;48.90;29.37;;;;;;;;;;4937944;29;20460;-67
2022/02/11 16:11:20;;;;;;;62.90;34.20;;;;;;;;;;4934702;29;20032;-67
2022/02/11 16:13:46;;;;;;;75.23;36.63;;;;;;;;;;4927233;29;20038;-67
2022/02/11 16:16:13;;;;;;;61.57;33.80;;;;;;;;;;4928743;29;20032;-68
2022/02/11 16:18:39;;;;;;;62.60;32.83;;;;;;;;;;4927644;29;20036;-69
2022/02/11 16:21:05;;;;;;;63.30;32.40;;;;;;;;;;4927141;29;20024;-66
2022/02/11 16:23:40;;;;;;;56.07;31.37;;;;;;;;;;4925994;29;20032;-68
2022/02/11 16:26:06;;;;;;;51.40;31.80;;;;;;;;;;4927273;29;20023;-68
2022/02/11 16:28:33;;;;;;;57.93;30.40;;;;;;;;;;4935102;29;20122;-69
2022/02/11 16:31:15;;;;;;;50.63;29.77;;;;;;;;;;4928712;29;20027;-67
2022/02/11 16:33:42;;;;;;;48.00;30.30;;;;;;;;;;4928730;29;20500;-65
2022/02/11 16:36:08;;;;;;;48.27;30.00;;;;;;;;;;4928479;29;20038;-67
2022/02/11 16:38:34;;;;;;;56.17;33.80;;;;;;;;;;4926020;29;20024;-68
2022/02/11 16:41:00;;;;;;;54.33;32.87;;;;;;;;;;4933381;29;20130;-65
2022/02/11 16:43:26;;;;;;;49.43;30.83;;;;;;;;;;4933735;29;20114;-67
2022/02/11 16:45:52;;;;;;;46.00;30.13;;;;;;;;;;4933833;29;20127;-65
2022/02/11 16:48:18;;;;;;;53.77;29.80;;;;;;;;;;4931929;29;20043;-69
2022/02/11 16:50:45;;;;;;;45.20;27.57;;;;;;;;;;4931259;29;20388;-66
2022/02/11 16:53:11;;;;;;;42.20;26.07;;;;;;;;;;4934823;29;20038;-66
2022/02/11 16:55:37;;;;;;;43.90;26.73;;;;;;;;;;4927285;29;20111;-65
2022/02/11 16:58:04;;;;;;;42.73;27.17;;;;;;;;;;4926161;29;20024;-66
2022/02/11 17:00:30;;;;;;;48.23;29.87;;;;;;;;;;4927933;29;20106;-67
2022/02/11 17:02:56;;;;;;;56.60;34.70;;;;;;;;;;4926783;29;20430;-72
2022/02/11 17:05:22;;;;;;;56.73;34.67;;;;;;;;;;4925863;29;20031;-65
2022/02/11 17:07:52;;;;;;;54.80;33.40;;;;;;;;;;4928310;29;20020;-68
2022/02/11 17:10:18;;;;;;;60.57;35.07;;;;;;;;;;4926770;29;20035;-71
2022/02/11 17:12:44;;;;;;;56.30;34.90;;;;;;;;;;4926066;29;20027;-65
2022/02/11 17:15:11;;;;;;;47.67;31.40;;;;;;;;;;4927761;29;20625;-65
2022/02/11 17:17:37;;;;;;;53.43;31.70;;;;;;;;;;4926566;29;20052;-70
2022/02/11 17:20:04;;;;;;;50.47;33.00;;;;;;;;;;4926061;29;20087;-66
2022/02/11 17:22:30;;;;;;;48.97;31.30;;;;;;;;;;4927734;29;20050;-68
2022/02/11 17:24:56;;;;;;;52.93;33.00;;;;;;;;;;4924925;29;20035;-66
2022/02/11 17:27:22;;;;;;;56.67;30.93;;;;;;;;;;4923170;29;20546;-67
2022/02/11 17:29:48;;;;;;;54.93;31.47;;;;;;;;;;4924429;29;20019;-67
2022/02/11 17:32:15;;;;;;;50.10;31.30;;;;;;;;;;4930023;29;20403;-65
2022/02/11 17:34:41;;;;;;;46.27;27.50;;;;;;;;;;4935226;29;20023;-66
2022/02/11 17:37:08;;;;;;;52.53;29.23;;;;;;;;;;4950643;29;20042;-66
2022/02/11 17:39:34;;;;;;;48.00;29.90;;;;;;;;;;4935091;29;20023;-66
2022/02/11 17:42:01;;;;;;;61.07;30.07;;;;;;;;;;4936473;29;20031;-66
2022/02/11 17:44:27;;;;;;;44.07;29.63;;;;;;;;;;4935978;29;20027;-67
2022/02/11 17:46:53;;;;;;;47.87;29.87;;;;;;;;;;4936615;29;20042;-67
2022/02/11 17:49:20;;;;;;;55.17;31.43;;;;;;;;;;4935167;29;20039;-66
2022/02/11 17:51:46;;;;;;;43.70;28.93;;;;;;;;;;4933476;29;20043;-66
2022/02/11 17:54:14;;;;;;;49.10;28.37;;;;;;;;;;4933964;29;20095;-71
2022/02/11 17:56:44;;;;;;;47.03;29.07;;;;;;;;;;4935966;29;20102;-66
2022/02/11 17:59:12;;;;;;;53.03;28.53;;;;;;;;;;4936015;29;20027;-68
2022/02/11 18:01:38;;;;;;;52.33;31.10;;;;;;;;;;4936251;29;20083;-69
2022/02/11 18:04:04;;;;;;;47.97;28.87;;;;;;;;;;4936125;29;20393;-69
2022/02/11 18:06:31;;;;;;;43.73;27.43;;;;;;;;;;4935978;29;20035;-70
2022/02/11 18:08:57;;;;;;;47.47;27.20;;;;;;;;;;4935746;29;20449;-66
2022/02/11 18:11:23;;;;;;;60.73;30.27;;;;;;;;;;4935462;29;20028;-66
2022/02/11 18:13:50;;;;;;;50.97;29.53;;;;;;;;;;4935506;29;20031;-71
2022/02/11 18:16:17;;;;;;;49.53;30.73;;;;;;;;;;4935537;29;20066;-66
2022/02/11 18:18:43;;;;;;;50.43;31.87;;;;;;;;;;4935164;29;20416;-70